sensor_id;sensor_type;location;lat;lon;timestamp;P1;durP1;ratioP1;P2;durP2;ratioP2
24206;SDS011;12351;52.284;9.160;2024-02-15T00:00:29;19.55;;;13.15;;
24206;SDS011;12351;52.284;9.160;2024-02-15T00:03:19;17.20;;;12.18;;
24206;SDS011;12351;52.284;9.160;2024-02-15T00:06:07;18.07;;;13.40;;
24206;SDS011;12351;52.284;9.160;2024-02-15T00:08:54;15.63;;;11.93;;
24206;SDS011;12351;52.284;9.160;2024-02-15T00:11:41;18.10;;;12.63;;
24206;SDS011;12351;52.284;9.160;2024-02-15T00:14:29;16.67;;;12.90;;
24206;SDS011;12351;52.284;9.160;2024-02-15T00:17:16;17.92;;;12.45;;
24206;SDS011;12351;52.284;9.160;2024-02-15T00:20:04;16.17;;;12.35;;
24206;SDS011;12351;52.284;9.160;2024-02-15T00:22:53;17.07;;;12.70;;
24206;SDS011;12351;52.284;9.160;2024-02-15T00:25:41;17.60;;;12.25;;
24206;SDS011;12351;52.284;9.160;2024-02-15T00:28:30;17.32;;;12.18;;
24206;SDS011;12351;52.284;9.160;2024-02-15T00:31:18;15.93;;;12.07;;
24206;SDS011;12351;52.284;9.160;2024-02-15T00:34:05;17.32;;;12.15;;
24206;SDS011;12351;52.284;9.160;2024-02-15T00:36:53;16.48;;;11.53;;
24206;SDS011;12351;52.284;9.160;2024-02-15T00:39:41;17.48;;;12.05;;
24206;SDS011;12351;52.284;9.160;2024-02-15T00:42:28;15.23;;;11.57;;
24206;SDS011;12351;52.284;9.160;2024-02-15T00:45:17;15.63;;;12.73;;
24206;SDS011;12351;52.284;9.160;2024-02-15T00:48:05;14.35;;;11.60;;
24206;SDS011;12351;52.284;9.160;2024-02-15T00:50:53;17.75;;;12.28;;
24206;SDS011;12351;52.284;9.160;2024-02-15T00:53:40;19.27;;;11.93;;
24206;SDS011;12351;52.284;9.160;2024-02-15T00:56:27;14.18;;;11.55;;
24206;SDS011;12351;52.284;9.160;2024-02-15T00:59:16;15.03;;;10.98;;
24206;SDS011;12351;52.284;9.160;2024-02-15T01:02:03;16.75;;;11.38;;
24206;SDS011;12351;52.284;9.160;2024-02-15T01:04:51;14.13;;;10.70;;
24206;SDS011;12351;52.284;9.160;2024-02-15T01:07:40;13.80;;;11.18;;
24206;SDS011;12351;52.284;9.160;2024-02-15T01:10:27;12.93;;;10.45;;
24206;SDS011;12351;52.284;9.160;2024-02-15T01:13:16;15.88;;;10.85;;
24206;SDS011;12351;52.284;9.160;2024-02-15T01:16:04;13.72;;;10.20;;
24206;SDS011;12351;52.284;9.160;2024-02-15T01:18:51;15.15;;;10.43;;
24206;SDS011;12351;52.284;9.160;2024-02-15T01:21:38;12.55;;;10.05;;
24206;SDS011;12351;52.284;9.160;2024-02-15T01:24:25;12.75;;;9.10;;
24206;SDS011;12351;52.284;9.160;2024-02-15T01:27:13;10.45;;;8.65;;
24206;SDS011;12351;52.284;9.160;2024-02-15T01:30:00;12.30;;;8.53;;
24206;SDS011;12351;52.284;9.160;2024-02-15T01:32:47;10.43;;;8.10;;
24206;SDS011;12351;52.284;9.160;2024-02-15T01:35:34;11.45;;;7.80;;
24206;SDS011;12351;52.284;9.160;2024-02-15T01:38:22;12.30;;;7.92;;
24206;SDS011;12351;52.284;9.160;2024-02-15T01:41:08;8.55;;;7.37;;
24206;SDS011;12351;52.284;9.160;2024-02-15T01:43:56;10.00;;;7.80;;
24206;SDS011;12351;52.284;9.160;2024-02-15T01:46:43;10.72;;;8.23;;
24206;SDS011;12351;52.284;9.160;2024-02-15T01:49:35;9.38;;;7.78;;
24206;SDS011;12351;52.284;9.160;2024-02-15T01:52:22;8.78;;;7.45;;
24206;SDS011;12351;52.284;9.160;2024-02-15T01:55:10;9.80;;;8.35;;
24206;SDS011;12351;52.284;9.160;2024-02-15T01:57:57;11.05;;;8.03;;
24206;SDS011;12351;52.284;9.160;2024-02-15T02:00:45;9.18;;;7.60;;
24206;SDS011;12351;52.284;9.160;2024-02-15T02:03:33;10.13;;;8.03;;
24206;SDS011;12351;52.284;9.160;2024-02-15T02:06:21;10.95;;;8.93;;
24206;SDS011;12351;52.284;9.160;2024-02-15T02:09:10;10.60;;;8.35;;
24206;SDS011;12351;52.284;9.160;2024-02-15T02:11:59;10.72;;;8.58;;
24206;SDS011;12351;52.284;9.160;2024-02-15T02:14:47;12.10;;;8.58;;
24206;SDS011;12351;52.284;9.160;2024-02-15T02:17:34;11.97;;;8.88;;
24206;SDS011;12351;52.284;9.160;2024-02-15T02:20:21;11.03;;;9.13;;
24206;SDS011;12351;52.284;9.160;2024-02-15T02:23:12;12.15;;;8.80;;
24206;SDS011;12351;52.284;9.160;2024-02-15T02:25:58;12.07;;;9.25;;
24206;SDS011;12351;52.284;9.160;2024-02-15T02:31:35;12.55;;;9.48;;
24206;SDS011;12351;52.284;9.160;2024-02-15T02:34:23;12.90;;;9.23;;
24206;SDS011;12351;52.284;9.160;2024-02-15T02:37:13;13.50;;;9.80;;
24206;SDS011;12351;52.284;9.160;2024-02-15T02:40:01;10.72;;;9.28;;
24206;SDS011;12351;52.284;9.160;2024-02-15T02:42:49;12.45;;;9.80;;
24206;SDS011;12351;52.284;9.160;2024-02-15T02:45:38;13.43;;;9.78;;
24206;SDS011;12351;52.284;9.160;2024-02-15T02:48:27;13.95;;;9.68;;
24206;SDS011;12351;52.284;9.160;2024-02-15T02:51:15;13.70;;;10.15;;
24206;SDS011;12351;52.284;9.160;2024-02-15T02:54:02;11.22;;;9.90;;
24206;SDS011;12351;52.284;9.160;2024-02-15T02:56:50;12.68;;;10.08;;
24206;SDS011;12351;52.284;9.160;2024-02-15T02:59:37;12.95;;;9.93;;
24206;SDS011;12351;52.284;9.160;2024-02-15T03:02:25;13.45;;;10.20;;
24206;SDS011;12351;52.284;9.160;2024-02-15T03:05:12;15.05;;;10.20;;
24206;SDS011;12351;52.284;9.160;2024-02-15T03:08:01;14.13;;;10.78;;
24206;SDS011;12351;52.284;9.160;2024-02-15T03:10:48;14.18;;;10.90;;
24206;SDS011;12351;52.284;9.160;2024-02-15T03:13:36;14.85;;;11.15;;
24206;SDS011;12351;52.284;9.160;2024-02-15T03:16:23;14.55;;;11.00;;
24206;SDS011;12351;52.284;9.160;2024-02-15T03:19:12;16.17;;;10.93;;
24206;SDS011;12351;52.284;9.160;2024-02-15T03:22:00;14.07;;;10.70;;
24206;SDS011;12351;52.284;9.160;2024-02-15T03:24:47;15.13;;;10.48;;
24206;SDS011;12351;52.284;9.160;2024-02-15T03:27:35;15.18;;;10.30;;
24206;SDS011;12351;52.284;9.160;2024-02-15T03:30:23;12.70;;;10.63;;
24206;SDS011;12351;52.284;9.160;2024-02-15T03:33:11;14.43;;;10.25;;
24206;SDS011;12351;52.284;9.160;2024-02-15T03:35:58;14.50;;;10.03;;
24206;SDS011;12351;52.284;9.160;2024-02-15T03:38:46;12.70;;;8.85;;
24206;SDS011;12351;52.284;9.160;2024-02-15T03:41:33;11.97;;;9.70;;
24206;SDS011;12351;52.284;9.160;2024-02-15T03:44:21;13.28;;;9.80;;
24206;SDS011;12351;52.284;9.160;2024-02-15T03:47:11;13.62;;;9.93;;
24206;SDS011;12351;52.284;9.160;2024-02-15T03:49:59;12.37;;;9.13;;
24206;SDS011;12351;52.284;9.160;2024-02-15T03:52:48;12.03;;;8.58;;
24206;SDS011;12351;52.284;9.160;2024-02-15T03:55:35;12.10;;;8.70;;
24206;SDS011;12351;52.284;9.160;2024-02-15T03:58:22;13.50;;;9.18;;
24206;SDS011;12351;52.284;9.160;2024-02-15T04:01:10;11.70;;;8.30;;
24206;SDS011;12351;52.284;9.160;2024-02-15T04:06:49;10.32;;;7.78;;
24206;SDS011;12351;52.284;9.160;2024-02-15T04:09:37;10.23;;;7.62;;
24206;SDS011;12351;52.284;9.160;2024-02-15T04:12:24;9.88;;;8.13;;
24206;SDS011;12351;52.284;9.160;2024-02-15T04:15:12;10.55;;;7.70;;
24206;SDS011;12351;52.284;9.160;2024-02-15T04:18:00;10.70;;;7.53;;
24206;SDS011;12351;52.284;9.160;2024-02-15T04:20:48;9.20;;;7.20;;
24206;SDS011;12351;52.284;9.160;2024-02-15T04:23:36;10.43;;;8.15;;
24206;SDS011;12351;52.284;9.160;2024-02-15T04:26:24;9.53;;;7.40;;
24206;SDS011;12351;52.284;9.160;2024-02-15T04:29:12;12.10;;;8.25;;
24206;SDS011;12351;52.284;9.160;2024-02-15T04:31:59;9.90;;;7.85;;
24206;SDS011;12351;52.284;9.160;2024-02-15T04:34:46;10.40;;;8.25;;
24206;SDS011;12351;52.284;9.160;2024-02-15T04:37:34;10.25;;;8.15;;
24206;SDS011;12351;52.284;9.160;2024-02-15T04:40:22;11.30;;;7.97;;
24206;SDS011;12351;52.284;9.160;2024-02-15T04:43:09;10.78;;;8.25;;
24206;SDS011;12351;52.284;9.160;2024-02-15T04:45:56;13.15;;;9.10;;
24206;SDS011;12351;52.284;9.160;2024-02-15T04:48:43;12.10;;;8.78;;
24206;SDS011;12351;52.284;9.160;2024-02-15T04:51:31;12.47;;;9.28;;
24206;SDS011;12351;52.284;9.160;2024-02-15T04:54:18;12.88;;;9.75;;
24206;SDS011;12351;52.284;9.160;2024-02-15T04:57:04;13.95;;;10.28;;
24206;SDS011;12351;52.284;9.160;2024-02-15T04:59:54;16.02;;;11.03;;
24206;SDS011;12351;52.284;9.160;2024-02-15T05:02:43;17.05;;;11.22;;
24206;SDS011;12351;52.284;9.160;2024-02-15T05:05:31;16.12;;;11.28;;
24206;SDS011;12351;52.284;9.160;2024-02-15T05:08:18;17.85;;;12.30;;
24206;SDS011;12351;52.284;9.160;2024-02-15T05:11:05;21.15;;;12.43;;
24206;SDS011;12351;52.284;9.160;2024-02-15T05:13:54;19.23;;;12.88;;
24206;SDS011;12351;52.284;9.160;2024-02-15T05:16:43;20.17;;;13.48;;
24206;SDS011;12351;52.284;9.160;2024-02-15T05:19:33;22.77;;;13.15;;
24206;SDS011;12351;52.284;9.160;2024-02-15T05:22:20;20.45;;;12.68;;
24206;SDS011;12351;52.284;9.160;2024-02-15T05:25:08;25.80;;;13.78;;
24206;SDS011;12351;52.284;9.160;2024-02-15T05:27:59;22.77;;;13.93;;
24206;SDS011;12351;52.284;9.160;2024-02-15T05:30:46;23.47;;;14.13;;
24206;SDS011;12351;52.284;9.160;2024-02-15T05:33:33;24.95;;;14.75;;
24206;SDS011;12351;52.284;9.160;2024-02-15T05:36:21;24.67;;;14.50;;
24206;SDS011;12351;52.284;9.160;2024-02-15T05:39:09;24.50;;;15.00;;
24206;SDS011;12351;52.284;9.160;2024-02-15T05:41:57;28.40;;;15.48;;
24206;SDS011;12351;52.284;9.160;2024-02-15T05:44:46;26.17;;;16.27;;
24206;SDS011;12351;52.284;9.160;2024-02-15T05:47:35;31.23;;;16.75;;
24206;SDS011;12351;52.284;9.160;2024-02-15T05:50:22;29.18;;;16.75;;
24206;SDS011;12351;52.284;9.160;2024-02-15T05:53:09;30.00;;;16.93;;
24206;SDS011;12351;52.284;9.160;2024-02-15T05:55:56;27.93;;;16.42;;
24206;SDS011;12351;52.284;9.160;2024-02-15T05:58:43;28.35;;;16.60;;
24206;SDS011;12351;52.284;9.160;2024-02-15T06:01:30;26.77;;;16.85;;
24206;SDS011;12351;52.284;9.160;2024-02-15T06:04:18;27.42;;;16.82;;
24206;SDS011;12351;52.284;9.160;2024-02-15T06:07:05;25.80;;;16.27;;
24206;SDS011;12351;52.284;9.160;2024-02-15T06:09:54;25.50;;;16.70;;
24206;SDS011;12351;52.284;9.160;2024-02-15T06:12:41;26.55;;;16.48;;
24206;SDS011;12351;52.284;9.160;2024-02-15T06:15:28;28.10;;;17.02;;
24206;SDS011;12351;52.284;9.160;2024-02-15T06:18:16;29.55;;;16.67;;
24206;SDS011;12351;52.284;9.160;2024-02-15T06:21:04;26.60;;;16.95;;
24206;SDS011;12351;52.284;9.160;2024-02-15T06:23:52;24.10;;;15.93;;
24206;SDS011;12351;52.284;9.160;2024-02-15T06:26:40;23.80;;;14.98;;
24206;SDS011;12351;52.284;9.160;2024-02-15T06:29:30;27.22;;;16.57;;
24206;SDS011;12351;52.284;9.160;2024-02-15T06:32:19;24.75;;;16.90;;
24206;SDS011;12351;52.284;9.160;2024-02-15T06:35:08;28.45;;;17.48;;
24206;SDS011;12351;52.284;9.160;2024-02-15T06:37:56;25.90;;;16.17;;
24206;SDS011;12351;52.284;9.160;2024-02-15T06:40:45;23.05;;;15.48;;
24206;SDS011;12351;52.284;9.160;2024-02-15T06:43:35;24.15;;;14.78;;
24206;SDS011;12351;52.284;9.160;2024-02-15T06:46:23;23.00;;;13.72;;
24206;SDS011;12351;52.284;9.160;2024-02-15T06:49:10;17.90;;;12.33;;
24206;SDS011;12351;52.284;9.160;2024-02-15T06:51:57;19.73;;;11.22;;
24206;SDS011;12351;52.284;9.160;2024-02-15T06:54:46;17.55;;;10.95;;
24206;SDS011;12351;52.284;9.160;2024-02-15T06:57:35;17.23;;;10.88;;
24206;SDS011;12351;52.284;9.160;2024-02-15T07:00:22;16.35;;;10.30;;
24206;SDS011;12351;52.284;9.160;2024-02-15T07:03:10;14.23;;;9.35;;
24206;SDS011;12351;52.284;9.160;2024-02-15T07:05:58;18.17;;;9.30;;
24206;SDS011;12351;52.284;9.160;2024-02-15T07:08:45;15.70;;;9.00;;
24206;SDS011;12351;52.284;9.160;2024-02-15T07:11:34;17.05;;;9.03;;
24206;SDS011;12351;52.284;9.160;2024-02-15T07:14:21;13.32;;;8.65;;
24206;SDS011;12351;52.284;9.160;2024-02-15T07:17:08;12.00;;;7.58;;
24206;SDS011;12351;52.284;9.160;2024-02-15T07:19:56;10.80;;;7.33;;
24206;SDS011;12351;52.284;9.160;2024-02-15T07:22:43;10.88;;;7.22;;
24206;SDS011;12351;52.284;9.160;2024-02-15T07:25:31;13.08;;;7.37;;
24206;SDS011;12351;52.284;9.160;2024-02-15T07:28:18;9.78;;;6.70;;
24206;SDS011;12351;52.284;9.160;2024-02-15T07:31:07;9.88;;;5.97;;
24206;SDS011;12351;52.284;9.160;2024-02-15T07:33:54;10.75;;;6.47;;
24206;SDS011;12351;52.284;9.160;2024-02-15T07:36:42;9.35;;;5.70;;
24206;SDS011;12351;52.284;9.160;2024-02-15T07:39:31;9.95;;;5.53;;
24206;SDS011;12351;52.284;9.160;2024-02-15T07:42:17;10.90;;;5.40;;
24206;SDS011;12351;52.284;9.160;2024-02-15T07:45:04;9.20;;;4.92;;
24206;SDS011;12351;52.284;9.160;2024-02-15T07:47:52;8.10;;;4.50;;
24206;SDS011;12351;52.284;9.160;2024-02-15T07:50:39;8.45;;;4.55;;
24206;SDS011;12351;52.284;9.160;2024-02-15T07:53:27;8.30;;;4.85;;
24206;SDS011;12351;52.284;9.160;2024-02-15T07:56:15;8.68;;;4.53;;
24206;SDS011;12351;52.284;9.160;2024-02-15T07:59:04;6.58;;;4.30;;
24206;SDS011;12351;52.284;9.160;2024-02-15T08:01:52;7.45;;;4.22;;
24206;SDS011;12351;52.284;9.160;2024-02-15T08:04:40;6.03;;;3.80;;
24206;SDS011;12351;52.284;9.160;2024-02-15T08:07:28;6.25;;;3.47;;
24206;SDS011;12351;52.284;9.160;2024-02-15T08:10:18;6.87;;;3.85;;
24206;SDS011;12351;52.284;9.160;2024-02-15T08:13:07;7.67;;;3.95;;
24206;SDS011;12351;52.284;9.160;2024-02-15T08:15:54;7.28;;;3.40;;
24206;SDS011;12351;52.284;9.160;2024-02-15T08:18:42;6.72;;;4.22;;
24206;SDS011;12351;52.284;9.160;2024-02-15T08:21:31;7.33;;;4.60;;
24206;SDS011;12351;52.284;9.160;2024-02-15T08:24:21;7.50;;;4.12;;
24206;SDS011;12351;52.284;9.160;2024-02-15T08:27:08;10.80;;;5.05;;
24206;SDS011;12351;52.284;9.160;2024-02-15T08:29:55;5.97;;;3.65;;
24206;SDS011;12351;52.284;9.160;2024-02-15T08:32:43;5.97;;;3.25;;
24206;SDS011;12351;52.284;9.160;2024-02-15T08:35:32;5.62;;;2.72;;
24206;SDS011;12351;52.284;9.160;2024-02-15T08:38:19;7.00;;;2.58;;
24206;SDS011;12351;52.284;9.160;2024-02-15T08:41:11;6.30;;;2.50;;
24206;SDS011;12351;52.284;9.160;2024-02-15T08:43:57;5.70;;;2.52;;
24206;SDS011;12351;52.284;9.160;2024-02-15T08:46:46;4.30;;;2.40;;
24206;SDS011;12351;52.284;9.160;2024-02-15T08:49:34;7.00;;;2.20;;
24206;SDS011;12351;52.284;9.160;2024-02-15T08:52:21;6.20;;;2.60;;
24206;SDS011;12351;52.284;9.160;2024-02-15T08:55:10;5.55;;;2.35;;
24206;SDS011;12351;52.284;9.160;2024-02-15T08:57:59;5.47;;;1.90;;
24206;SDS011;12351;52.284;9.160;2024-02-15T09:00:47;4.08;;;2.20;;
24206;SDS011;12351;52.284;9.160;2024-02-15T09:03:34;3.67;;;1.82;;
24206;SDS011;12351;52.284;9.160;2024-02-15T09:06:21;5.08;;;1.95;;
24206;SDS011;12351;52.284;9.160;2024-02-15T09:09:08;3.90;;;1.90;;
24206;SDS011;12351;52.284;9.160;2024-02-15T09:11:56;2.60;;;1.82;;
24206;SDS011;12351;52.284;9.160;2024-02-15T09:14:43;4.05;;;2.02;;
24206;SDS011;12351;52.284;9.160;2024-02-15T09:17:30;6.22;;;2.10;;
24206;SDS011;12351;52.284;9.160;2024-02-15T09:20:19;4.55;;;2.17;;
24206;SDS011;12351;52.284;9.160;2024-02-15T09:23:06;3.90;;;1.77;;
24206;SDS011;12351;52.284;9.160;2024-02-15T09:25:55;4.28;;;2.08;;
24206;SDS011;12351;52.284;9.160;2024-02-15T09:28:42;4.40;;;1.65;;
24206;SDS011;12351;52.284;9.160;2024-02-15T09:31:29;3.98;;;1.85;;
24206;SDS011;12351;52.284;9.160;2024-02-15T09:34:16;4.53;;;1.77;;
24206;SDS011;12351;52.284;9.160;2024-02-15T09:37:03;5.12;;;2.15;;
24206;SDS011;12351;52.284;9.160;2024-02-15T09:39:50;2.72;;;1.80;;
24206;SDS011;12351;52.284;9.160;2024-02-15T09:42:40;4.37;;;1.98;;
24206;SDS011;12351;52.284;9.160;2024-02-15T09:45:28;4.80;;;1.70;;
24206;SDS011;12351;52.284;9.160;2024-02-15T09:48:17;3.20;;;1.55;;
24206;SDS011;12351;52.284;9.160;2024-02-15T09:51:05;4.78;;;1.32;;
24206;SDS011;12351;52.284;9.160;2024-02-15T09:53:55;2.72;;;1.47;;
24206;SDS011;12351;52.284;9.160;2024-02-15T09:56:43;3.65;;;1.50;;
24206;SDS011;12351;52.284;9.160;2024-02-15T09:59:31;5.70;;;1.62;;
24206;SDS011;12351;52.284;9.160;2024-02-15T10:02:20;4.33;;;1.50;;
24206;SDS011;12351;52.284;9.160;2024-02-15T10:05:08;2.27;;;1.30;;
24206;SDS011;12351;52.284;9.160;2024-02-15T10:07:57;2.55;;;1.42;;
24206;SDS011;12351;52.284;9.160;2024-02-15T10:10:46;3.40;;;1.60;;
24206;SDS011;12351;52.284;9.160;2024-02-15T10:13:33;3.85;;;1.50;;
24206;SDS011;12351;52.284;9.160;2024-02-15T10:16:21;5.22;;;1.57;;
24206;SDS011;12351;52.284;9.160;2024-02-15T10:19:09;3.65;;;1.50;;
24206;SDS011;12351;52.284;9.160;2024-02-15T10:22:04;3.55;;;1.40;;
24206;SDS011;12351;52.284;9.160;2024-02-15T10:24:47;3.22;;;1.50;;
24206;SDS011;12351;52.284;9.160;2024-02-15T10:27:34;3.83;;;1.57;;
24206;SDS011;12351;52.284;9.160;2024-02-15T10:30:22;5.37;;;1.45;;
24206;SDS011;12351;52.284;9.160;2024-02-15T10:33:10;4.65;;;1.65;;
24206;SDS011;12351;52.284;9.160;2024-02-15T10:38:49;2.10;;;1.40;;
24206;SDS011;12351;52.284;9.160;2024-02-15T10:41:36;4.17;;;1.95;;
24206;SDS011;12351;52.284;9.160;2024-02-15T10:44:25;3.80;;;1.47;;
24206;SDS011;12351;52.284;9.160;2024-02-15T10:47:13;3.90;;;1.57;;
24206;SDS011;12351;52.284;9.160;2024-02-15T10:50:00;3.47;;;1.37;;
24206;SDS011;12351;52.284;9.160;2024-02-15T10:55:40;6.22;;;1.50;;
24206;SDS011;12351;52.284;9.160;2024-02-15T10:58:30;2.80;;;1.45;;
24206;SDS011;12351;52.284;9.160;2024-02-15T11:01:19;3.50;;;1.70;;
24206;SDS011;12351;52.284;9.160;2024-02-15T11:04:08;3.47;;;1.47;;
24206;SDS011;12351;52.284;9.160;2024-02-15T11:06:59;2.52;;;1.50;;
24206;SDS011;12351;52.284;9.160;2024-02-15T11:09:48;5.60;;;1.40;;
24206;SDS011;12351;52.284;9.160;2024-02-15T11:12:36;3.75;;;1.30;;
24206;SDS011;12351;52.284;9.160;2024-02-15T11:21:04;2.77;;;1.35;;
24206;SDS011;12351;52.284;9.160;2024-02-15T11:23:52;3.72;;;1.27;;
24206;SDS011;12351;52.284;9.160;2024-02-15T11:26:43;5.25;;;1.52;;
24206;SDS011;12351;52.284;9.160;2024-02-15T11:35:13;3.22;;;1.40;;
24206;SDS011;12351;52.284;9.160;2024-02-15T11:38:01;2.52;;;1.30;;
24206;SDS011;12351;52.284;9.160;2024-02-15T11:46:26;2.83;;;1.22;;
24206;SDS011;12351;52.284;9.160;2024-02-15T11:49:15;3.10;;;1.17;;
24206;SDS011;12351;52.284;9.160;2024-02-15T11:55:06;3.60;;;1.20;;
24206;SDS011;12351;52.284;9.160;2024-02-15T12:00:39;3.10;;;1.30;;
24206;SDS011;12351;52.284;9.160;2024-02-15T12:03:28;2.52;;;1.20;;
24206;SDS011;12351;52.284;9.160;2024-02-15T12:06:17;3.72;;;1.30;;
24206;SDS011;12351;52.284;9.160;2024-02-15T12:09:06;5.03;;;1.10;;
24206;SDS011;12351;52.284;9.160;2024-02-15T12:11:57;3.10;;;1.20;;
24206;SDS011;12351;52.284;9.160;2024-02-15T12:14:47;3.37;;;1.20;;
24206;SDS011;12351;52.284;9.160;2024-02-15T12:17:36;2.62;;;1.10;;
24206;SDS011;12351;52.284;9.160;2024-02-15T12:20:27;3.77;;;1.40;;
24206;SDS011;12351;52.284;9.160;2024-02-15T12:23:14;1.62;;;0.98;;
24206;SDS011;12351;52.284;9.160;2024-02-15T12:26:03;2.55;;;1.40;;
24206;SDS011;12351;52.284;9.160;2024-02-15T12:28:53;2.65;;;1.72;;
24206;SDS011;12351;52.284;9.160;2024-02-15T12:31:41;2.85;;;1.32;;
24206;SDS011;12351;52.284;9.160;2024-02-15T12:34:30;1.65;;;1.20;;
24206;SDS011;12351;52.284;9.160;2024-02-15T12:37:17;2.05;;;1.10;;
24206;SDS011;12351;52.284;9.160;2024-02-15T12:42:58;2.65;;;1.20;;
24206;SDS011;12351;52.284;9.160;2024-02-15T12:45:47;2.92;;;1.75;;
24206;SDS011;12351;52.284;9.160;2024-02-15T12:48:34;3.30;;;1.30;;
24206;SDS011;12351;52.284;9.160;2024-02-15T12:51:26;3.02;;;1.52;;
24206;SDS011;12351;52.284;9.160;2024-02-15T12:54:18;3.37;;;1.27;;
24206;SDS011;12351;52.284;9.160;2024-02-15T12:57:07;3.00;;;1.27;;
24206;SDS011;12351;52.284;9.160;2024-02-15T12:59:55;1.82;;;1.15;;
24206;SDS011;12351;52.284;9.160;2024-02-15T13:02:44;2.67;;;1.30;;
24206;SDS011;12351;52.284;9.160;2024-02-15T13:05:32;2.33;;;1.30;;
24206;SDS011;12351;52.284;9.160;2024-02-15T13:08:21;4.72;;;1.20;;
24206;SDS011;12351;52.284;9.160;2024-02-15T13:11:08;2.83;;;1.32;;
24206;SDS011;12351;52.284;9.160;2024-02-15T13:13:57;3.05;;;1.30;;
24206;SDS011;12351;52.284;9.160;2024-02-15T13:16:44;4.05;;;1.50;;
24206;SDS011;12351;52.284;9.160;2024-02-15T13:19:33;2.75;;;0.95;;
24206;SDS011;12351;52.284;9.160;2024-02-15T13:22:21;2.47;;;0.80;;
24206;SDS011;12351;52.284;9.160;2024-02-15T13:25:09;2.40;;;1.20;;
24206;SDS011;12351;52.284;9.160;2024-02-15T13:27:56;2.35;;;1.00;;
24206;SDS011;12351;52.284;9.160;2024-02-15T13:30:44;5.20;;;1.27;;
24206;SDS011;12351;52.284;9.160;2024-02-15T13:33:31;2.10;;;1.00;;
24206;SDS011;12351;52.284;9.160;2024-02-15T13:36:18;3.15;;;1.00;;
24206;SDS011;12351;52.284;9.160;2024-02-15T13:39:05;2.35;;;0.85;;
24206;SDS011;12351;52.284;9.160;2024-02-15T13:41:54;1.82;;;0.80;;
24206;SDS011;12351;52.284;9.160;2024-02-15T13:44:41;1.67;;;0.80;;
24206;SDS011;12351;52.284;9.160;2024-02-15T13:47:30;1.75;;;1.00;;
24206;SDS011;12351;52.284;9.160;2024-02-15T13:50:18;1.07;;;0.90;;
24206;SDS011;12351;52.284;9.160;2024-02-15T13:53:06;2.50;;;0.95;;
24206;SDS011;12351;52.284;9.160;2024-02-15T13:55:53;1.65;;;0.80;;
24206;SDS011;12351;52.284;9.160;2024-02-15T13:58:41;1.67;;;0.72;;
24206;SDS011;12351;52.284;9.160;2024-02-15T14:01:28;1.70;;;0.70;;
24206;SDS011;12351;52.284;9.160;2024-02-15T14:04:15;1.85;;;0.90;;
24206;SDS011;12351;52.284;9.160;2024-02-15T14:07:02;2.00;;;0.80;;
24206;SDS011;12351;52.284;9.160;2024-02-15T14:09:49;2.45;;;0.80;;
24206;SDS011;12351;52.284;9.160;2024-02-15T14:12:37;2.47;;;0.80;;
24206;SDS011;12351;52.284;9.160;2024-02-15T14:15:25;3.10;;;1.00;;
24206;SDS011;12351;52.284;9.160;2024-02-15T14:18:13;4.95;;;1.00;;
24206;SDS011;12351;52.284;9.160;2024-02-15T14:21:01;2.87;;;0.90;;
24206;SDS011;12351;52.284;9.160;2024-02-15T14:23:49;3.02;;;0.90;;
24206;SDS011;12351;52.284;9.160;2024-02-15T14:29:24;2.45;;;0.60;;
24206;SDS011;12351;52.284;9.160;2024-02-15T14:32:13;2.27;;;0.70;;
24206;SDS011;12351;52.284;9.160;2024-02-15T14:35:01;3.20;;;0.80;;
24206;SDS011;12351;52.284;9.160;2024-02-15T14:37:48;3.92;;;0.85;;
24206;SDS011;12351;52.284;9.160;2024-02-15T14:40:37;3.95;;;1.00;;
24206;SDS011;12351;52.284;9.160;2024-02-15T14:43:25;1.57;;;0.70;;
24206;SDS011;12351;52.284;9.160;2024-02-15T14:46:13;1.37;;;0.70;;
24206;SDS011;12351;52.284;9.160;2024-02-15T14:49:01;4.17;;;0.85;;
24206;SDS011;12351;52.284;9.160;2024-02-15T14:51:49;3.33;;;0.80;;
24206;SDS011;12351;52.284;9.160;2024-02-15T14:54:37;3.72;;;0.80;;
24206;SDS011;12351;52.284;9.160;2024-02-15T14:57:24;2.40;;;0.75;;
24206;SDS011;12351;52.284;9.160;2024-02-15T15:00:11;3.22;;;1.00;;
24206;SDS011;12351;52.284;9.160;2024-02-15T15:02:59;2.87;;;0.78;;
24206;SDS011;12351;52.284;9.160;2024-02-15T15:05:47;2.70;;;0.88;;
24206;SDS011;12351;52.284;9.160;2024-02-15T15:08:36;1.22;;;0.88;;
24206;SDS011;12351;52.284;9.160;2024-02-15T15:11:24;2.65;;;0.70;;
24206;SDS011;12351;52.284;9.160;2024-02-15T15:14:12;2.80;;;0.82;;
24206;SDS011;12351;52.284;9.160;2024-02-15T15:17:00;1.77;;;0.72;;
24206;SDS011;12351;52.284;9.160;2024-02-15T15:19:47;3.33;;;0.80;;
24206;SDS011;12351;52.284;9.160;2024-02-15T15:22:34;4.20;;;0.85;;
24206;SDS011;12351;52.284;9.160;2024-02-15T15:25:24;2.33;;;0.80;;
24206;SDS011;12351;52.284;9.160;2024-02-15T15:28:13;1.57;;;0.70;;
24206;SDS011;12351;52.284;9.160;2024-02-15T15:31:00;2.37;;;0.65;;
24206;SDS011;12351;52.284;9.160;2024-02-15T15:33:48;3.80;;;0.80;;
24206;SDS011;12351;52.284;9.160;2024-02-15T15:36:37;1.45;;;0.72;;
24206;SDS011;12351;52.284;9.160;2024-02-15T15:39:24;1.75;;;1.00;;
24206;SDS011;12351;52.284;9.160;2024-02-15T15:42:15;2.20;;;0.88;;
24206;SDS011;12351;52.284;9.160;2024-02-15T15:45:04;2.77;;;1.02;;
24206;SDS011;12351;52.284;9.160;2024-02-15T15:47:53;3.02;;;1.22;;
24206;SDS011;12351;52.284;9.160;2024-02-15T15:50:40;3.42;;;1.00;;
24206;SDS011;12351;52.284;9.160;2024-02-15T15:53:28;4.10;;;1.35;;
24206;SDS011;12351;52.284;9.160;2024-02-15T15:56:15;3.70;;;1.07;;
24206;SDS011;12351;52.284;9.160;2024-02-15T15:59:03;2.15;;;1.12;;
24206;SDS011;12351;52.284;9.160;2024-02-15T16:01:51;4.78;;;1.35;;
24206;SDS011;12351;52.284;9.160;2024-02-15T16:07:29;3.90;;;1.60;;
24206;SDS011;12351;52.284;9.160;2024-02-15T16:10:16;3.62;;;1.72;;
24206;SDS011;12351;52.284;9.160;2024-02-15T16:13:05;6.28;;;1.90;;
24206;SDS011;12351;52.284;9.160;2024-02-15T16:15:52;3.42;;;1.60;;
24206;SDS011;12351;52.284;9.160;2024-02-15T16:18:41;4.65;;;1.77;;
24206;SDS011;12351;52.284;9.160;2024-02-15T16:21:28;4.20;;;1.95;;
24206;SDS011;12351;52.284;9.160;2024-02-15T16:24:15;3.00;;;2.00;;
24206;SDS011;12351;52.284;9.160;2024-02-15T16:27:02;2.17;;;1.70;;
24206;SDS011;12351;52.284;9.160;2024-02-15T16:29:51;4.35;;;2.00;;
24206;SDS011;12351;52.284;9.160;2024-02-15T16:32:39;4.55;;;1.70;;
24206;SDS011;12351;52.284;9.160;2024-02-15T16:35:26;4.08;;;2.20;;
24206;SDS011;12351;52.284;9.160;2024-02-15T16:38:13;4.83;;;2.30;;
24206;SDS011;12351;52.284;9.160;2024-02-15T16:41:02;3.35;;;1.90;;
24206;SDS011;12351;52.284;9.160;2024-02-15T16:43:49;3.85;;;1.77;;
24206;SDS011;12351;52.284;9.160;2024-02-15T16:46:38;5.75;;;1.98;;
24206;SDS011;12351;52.284;9.160;2024-02-15T16:49:25;4.55;;;1.70;;
24206;SDS011;12351;52.284;9.160;2024-02-15T16:52:12;6.75;;;2.22;;
24206;SDS011;12351;52.284;9.160;2024-02-15T16:55:01;4.30;;;3.70;;
24206;SDS011;12351;52.284;9.160;2024-02-15T16:57:51;4.33;;;2.85;;
24206;SDS011;12351;52.284;9.160;2024-02-15T17:00:39;3.45;;;2.35;;
24206;SDS011;12351;52.284;9.160;2024-02-15T17:03:30;4.05;;;2.12;;
24206;SDS011;12351;52.284;9.160;2024-02-15T17:06:17;4.78;;;2.30;;
24206;SDS011;12351;52.284;9.160;2024-02-15T17:09:05;5.95;;;2.25;;
24206;SDS011;12351;52.284;9.160;2024-02-15T17:11:55;3.95;;;2.40;;
24206;SDS011;12351;52.284;9.160;2024-02-15T17:14:43;8.18;;;2.37;;
24206;SDS011;12351;52.284;9.160;2024-02-15T17:17:36;3.22;;;2.05;;
24206;SDS011;12351;52.284;9.160;2024-02-15T17:20:25;2.85;;;2.02;;
24206;SDS011;12351;52.284;9.160;2024-02-15T17:23:12;5.47;;;2.27;;